Topacio — EA3917 — position and weather

sailwx.info

Track history (hours):
 
Tides and Currents Weather Stations Pressure Air Temp Water Temp Dewpoint Dewpoint Depression Visibility Wind Speed Wind Dir Waves Ship Positions

Topacio

Last reported at 2018-Jun-20 05:03 UTC. Time now 2018-Jun-20 11:38 UTC.
Position N 37°34' W 000°59'.

Length 24 m.

Type: Fishing. MMSI: 224217120.

Date/timePositionNaut miles runAvg speedWind from/ knotsBaromVisibWave heightAir tempDewpointWater temp
2018-Jun-20 05:03N 37°34' W 000°59'2 9.3
2018-Jun-20 04:50N 37°33' W 000°57'3 9.3
2018-Jun-20 04:30N 37°31' W 000°54'1 1.4
2018-Jun-20 03:52N 37°30' W 000°53'0 0.8
2018-Jun-20 03:17N 37°30' W 000°53'1 2.4
2018-Jun-20 03:00N 37°30' W 000°54'1 2.2
2018-Jun-20 02:29N 37°30' W 000°56'1 1.2
2018-Jun-20 01:59N 37°30' W 000°56'3 0.1
2018-Jun-17 23:55N 37°32' W 000°59'4 9.4
2018-Jun-17 23:30N 37°32' W 000°55'5 9.4
2018-Jun-17 23:00N 37°32' W 000°48'5 9.2
2018-Jun-17 22:29N 37°35' W 000°44'8 9.2
2018-Jun-17 21:35N 37°43' W 000°41'1 9.9
2018-Jun-17 21:29N 37°44' W 000°41'5 9.6
2018-Jun-17 21:00N 37°48' W 000°44'  
2018-Jun-15 06:47N 37°49' W 000°45'0 0.0
2018-Jun-15 06:30N 37°49' W 000°45'0 0.0
2018-Jun-15 06:00N 37°49' W 000°45'0 0.0
2018-Jun-15 05:30N 37°49' W 000°45'3 5.5
2018-Jun-15 05:00N 37°51' W 000°43'5 9.5
2018-Jun-15 04:30N 37°54' W 000°38'1 1.6
2018-Jun-15 04:00N 37°54' W 000°37'0 0.2
2018-Jun-15 03:30N 37°54' W 000°37'0 0.1
2018-Jun-15 03:00N 37°54' W 000°37'0 0.3
2018-Jun-15 02:30N 37°54' W 000°37'0 0.6
2018-Jun-15 02:00N 37°54' W 000°37'0 0.2
2018-Jun-15 01:30N 37°54' W 000°37'0 0.1
2018-Jun-15 01:00N 37°54' W 000°37'3 5.7
2018-Jun-15 00:30N 37°56' W 000°35'1 1.7
2018-Jun-15 00:00N 37°56' W 000°34'0 0.1
2018-Jun-14 23:30N 37°56' W 000°34'0 0.2
2018-Jun-14 23:00N 37°56' W 000°34'0 0.7
2018-Jun-14 22:30N 37°56' W 000°35'0 0.8
2018-Jun-14 22:00N 37°56' W 000°34'0 0.4
2018-Jun-14 21:29N 37°56' W 000°34'3 6.2
2018-Jun-14 20:59N 37°53' W 000°36'5 9.8
2018-Jun-14 20:31N 37°50' W 000°41'4 7.8
2018-Jun-14 20:00N 37°49' W 000°45'0 0.0
2018-Jun-14 09:58N 37°49' W 000°45'0 0.0
2018-Jun-14 09:31N 37°49' W 000°45'0 0.0
2018-Jun-14 09:00N 37°49' W 000°45'0 0.0
2018-Jun-14 08:30N 37°49' W 000°45'0 0.0
2018-Jun-14 08:00N 37°49' W 000°45'0 0.0
2018-Jun-14 07:30N 37°49' W 000°45'1 1.9
2018-Jun-14 07:00N 37°50' W 000°44'0 0.1
2018-Jun-14 06:29N 37°50' W 000°44'0 0.5
2018-Jun-14 06:00N 37°50' W 000°44'4 9.0
2018-Jun-14 05:30N 37°53' W 000°40'4 8.9
2018-Jun-14 05:00N 37°56' W 000°36'0 0.4
2018-Jun-14 04:31N 37°56' W 000°35'0 0.2
2018-Jun-14 04:00N 37°56' W 000°35'0 0.2
2018-Jun-14 03:30N 37°56' W 000°35'5 9.9
2018-Jun-14 03:00N 37°52' W 000°39'510.7
2018-Jun-14 02:30N 37°49' W 000°45'0 0.7
2018-Jun-14 02:00N 37°49' W 000°45'0 0.0
2018-Jun-14 01:30N 37°49' W 000°45'5 9.0
2018-Jun-14 01:00N 37°51' W 000°40'510.6
2018-Jun-14 00:30N 37°55' W 000°36'2 3.2
2018-Jun-13 23:58N 37°56' W 000°34'0 0.3
2018-Jun-13 23:30N 37°56' W 000°34'0 0.3
2018-Jun-13 23:00N 37°56' W 000°34'0 0.1
2018-Jun-13 22:31N 37°56' W 000°34'0 0.1
2018-Jun-13 21:58N 37°56' W 000°34'3 7.5
2018-Jun-13 21:30N 37°53' W 000°35'5 9.1
2018-Jun-13 21:00N 37°50' W 000°40'5 9.0
2018-Jun-13 20:30N 37°49' W 000°45'0 0.0
2018-Jun-13 11:37N 37°49' W 000°45'0 0.0
2018-Jun-13 11:27N 37°49' W 000°45'0 0.0
2018-Jun-13 11:00N 37°49' W 000°45'0 0.0
2018-Jun-13 10:29N 37°49' W 000°45'0 0.0
2018-Jun-13 09:59N 37°49' W 000°45'0 0.0
2018-Jun-13 09:30N 37°49' W 000°45'0 0.0
2018-Jun-13 09:00N 37°49' W 000°45'0 0.0
2018-Jun-13 08:30N 37°49' W 000°45'0 0.0
2018-Jun-13 08:00N 37°49' W 000°45'0 0.0
2018-Jun-13 07:30N 37°49' W 000°45'0 0.0
2018-Jun-13 07:00N 37°49' W 000°45'0 0.0
2018-Jun-13 06:30N 37°49' W 000°45'4 7.8
2018-Jun-13 06:00N 37°52' W 000°42'4 9.0
2018-Jun-13 05:30N 37°54' W 000°37'5 9.2
2018-Jun-13 05:00N 37°56' W 000°32'8 2.9
2018-Jun-13 02:27N 37°59' W 000°23'2 4.1
2018-Jun-13 02:00N 37°58' W 000°24'1 1.2
2018-Jun-13 01:30N 37°57' W 000°24'3 6.8
2018-Jun-13 01:00N 37°55' W 000°27'5 9.1
2018-Jun-13 00:30N 37°52' W 000°32'5 9.3
2018-Jun-13 00:00N 37°51' W 000°37'5 9.7
2018-Jun-12 23:30N 37°50' W 000°43'2 0.2
2018-Jun-12 13:19N 37°49' W 000°45'0 0.0
2018-Jun-12 13:00N 37°49' W 000°45'0 0.0
2018-Jun-12 12:30N 37°49' W 000°45'0 0.0
2018-Jun-12 12:00N 37°49' W 000°45'0 0.0
2018-Jun-12 11:30N 37°49' W 000°45'0 0.0
2018-Jun-12 11:00N 37°49' W 000°45'0 0.0
2018-Jun-12 10:30N 37°49' W 000°45'0 0.0
2018-Jun-12 10:01N 37°49' W 000°45'0 0.0
2018-Jun-12 09:30N 37°49' W 000°45'0 0.0
2018-Jun-12 09:00N 37°49' W 000°45'0 0.0
2018-Jun-12 08:30N 37°49' W 000°45'0 0.0
2018-Jun-12 08:00N 37°49' W 000°45'0 0.0
2018-Jun-12 07:30N 37°49' W 000°45'0 0.0
2018-Jun-12 07:00N 37°49' W 000°45'0 0.0
2018-Jun-12 06:30N 37°49' W 000°45'0 0.0
2018-Jun-12 06:00N 37°49' W 000°45'2 4.4
2018-Jun-12 05:29N 37°50' W 000°43'5 9.7
2018-Jun-12 05:00N 37°51' W 000°37'4 7.4
2018-Jun-12 04:30N 37°51' W 000°32'0 0.3
2018-Jun-12 04:00N 37°51' W 000°32'0 0.2
2018-Jun-12 03:30N 37°51' W 000°32'0 0.3
2018-Jun-12 03:00N 37°51' W 000°32'0 0.2
2018-Jun-12 02:30N 37°51' W 000°31'0 0.1
2018-Jun-12 02:00N 37°51' W 000°31'3 2.4
2018-Jun-12 00:46N 37°48' W 000°31'0 0.3
2018-Jun-12 00:14N 37°48' W 000°31'0 0.0
2018-Jun-11 23:05N 37°48' W 000°31'0 0.1
2018-Jun-11 22:51N 37°48' W 000°31'3 9.4
2018-Jun-11 22:30N 37°49' W 000°35'5 9.6
2018-Jun-11 21:59N 37°50' W 000°41'  
Track history (hours):
 
Tides and Currents Weather Stations Pressure Air Temp Water Temp Dewpoint Dewpoint Depression Visibility Wind Speed Wind Dir Waves Ship Positions

Topacio

Last reported at 2018-Jun-20 05:03 UTC. Time now 2018-Jun-20 11:38 UTC.
Position N 37°34' W 000°59'.

Length 24 m.

Type: Fishing. MMSI: 224217120.

Date/timePositionNaut miles runAvg speedWind from/ knotsBaromVisibWave heightAir tempDewpointWater temp
2018-Jun-20 05:03N 37°34' W 000°59'2 9.3
2018-Jun-20 04:50N 37°33' W 000°57'3 9.3
2018-Jun-20 04:30N 37°31' W 000°54'1 1.4
2018-Jun-20 03:52N 37°30' W 000°53'0 0.8
2018-Jun-20 03:17N 37°30' W 000°53'1 2.4
2018-Jun-20 03:00N 37°30' W 000°54'1 2.2
2018-Jun-20 02:29N 37°30' W 000°56'1 1.2
2018-Jun-20 01:59N 37°30' W 000°56'3 0.1
2018-Jun-17 23:55N 37°32' W 000°59'4 9.4
2018-Jun-17 23:30N 37°32' W 000°55'5 9.4
2018-Jun-17 23:00N 37°32' W 000°48'5 9.2
2018-Jun-17 22:29N 37°35' W 000°44'8 9.2
2018-Jun-17 21:35N 37°43' W 000°41'1 9.9
2018-Jun-17 21:29N 37°44' W 000°41'5 9.6
2018-Jun-17 21:00N 37°48' W 000°44'  
2018-Jun-15 06:47N 37°49' W 000°45'0 0.0
2018-Jun-15 06:30N 37°49' W 000°45'0 0.0
2018-Jun-15 06:00N 37°49' W 000°45'0 0.0
2018-Jun-15 05:30N 37°49' W 000°45'3 5.5
2018-Jun-15 05:00N 37°51' W 000°43'5 9.5
2018-Jun-15 04:30N 37°54' W 000°38'1 1.6
2018-Jun-15 04:00N 37°54' W 000°37'0 0.2
2018-Jun-15 03:30N 37°54' W 000°37'0 0.1
2018-Jun-15 03:00N 37°54' W 000°37'0 0.3
2018-Jun-15 02:30N 37°54' W 000°37'0 0.6
2018-Jun-15 02:00N 37°54' W 000°37'0 0.2
2018-Jun-15 01:30N 37°54' W 000°37'0 0.1
2018-Jun-15 01:00N 37°54' W 000°37'3 5.7
2018-Jun-15 00:30N 37°56' W 000°35'1 1.7
2018-Jun-15 00:00N 37°56' W 000°34'0 0.1
2018-Jun-14 23:30N 37°56' W 000°34'0 0.2
2018-Jun-14 23:00N 37°56' W 000°34'0 0.7
2018-Jun-14 22:30N 37°56' W 000°35'0 0.8
2018-Jun-14 22:00N 37°56' W 000°34'0 0.4
2018-Jun-14 21:29N 37°56' W 000°34'3 6.2
2018-Jun-14 20:59N 37°53' W 000°36'5 9.8
2018-Jun-14 20:31N 37°50' W 000°41'4 7.8
2018-Jun-14 20:00N 37°49' W 000°45'0 0.0
2018-Jun-14 09:58N 37°49' W 000°45'0 0.0
2018-Jun-14 09:31N 37°49' W 000°45'0 0.0
2018-Jun-14 09:00N 37°49' W 000°45'0 0.0
2018-Jun-14 08:30N 37°49' W 000°45'0 0.0
2018-Jun-14 08:00N 37°49' W 000°45'0 0.0
2018-Jun-14 07:30N 37°49' W 000°45'1 1.9
2018-Jun-14 07:00N 37°50' W 000°44'0 0.1
2018-Jun-14 06:29N 37°50' W 000°44'0 0.5
2018-Jun-14 06:00N 37°50' W 000°44'4 9.0
2018-Jun-14 05:30N 37°53' W 000°40'4 8.9
2018-Jun-14 05:00N 37°56' W 000°36'0 0.4
2018-Jun-14 04:31N 37°56' W 000°35'0 0.2
2018-Jun-14 04:00N 37°56' W 000°35'0 0.2
2018-Jun-14 03:30N 37°56' W 000°35'5 9.9
2018-Jun-14 03:00N 37°52' W 000°39'510.7
2018-Jun-14 02:30N 37°49' W 000°45'0 0.7
2018-Jun-14 02:00N 37°49' W 000°45'0 0.0
2018-Jun-14 01:30N 37°49' W 000°45'5 9.0
2018-Jun-14 01:00N 37°51' W 000°40'510.6
2018-Jun-14 00:30N 37°55' W 000°36'2 3.2
2018-Jun-13 23:58N 37°56' W 000°34'0 0.3
2018-Jun-13 23:30N 37°56' W 000°34'0 0.3
2018-Jun-13 23:00N 37°56' W 000°34'0 0.1
2018-Jun-13 22:31N 37°56' W 000°34'0 0.1
2018-Jun-13 21:58N 37°56' W 000°34'3 7.5
2018-Jun-13 21:30N 37°53' W 000°35'5 9.1
2018-Jun-13 21:00N 37°50' W 000°40'5 9.0
2018-Jun-13 20:30N 37°49' W 000°45'0 0.0
2018-Jun-13 11:37N 37°49' W 000°45'0 0.0
2018-Jun-13 11:27N 37°49' W 000°45'0 0.0
2018-Jun-13 11:00N 37°49' W 000°45'0 0.0
2018-Jun-13 10:29N 37°49' W 000°45'0 0.0
2018-Jun-13 09:59N 37°49' W 000°45'0 0.0
2018-Jun-13 09:30N 37°49' W 000°45'0 0.0
2018-Jun-13 09:00N 37°49' W 000°45'0 0.0
2018-Jun-13 08:30N 37°49' W 000°45'0 0.0
2018-Jun-13 08:00N 37°49' W 000°45'0 0.0
2018-Jun-13 07:30N 37°49' W 000°45'0 0.0
2018-Jun-13 07:00N 37°49' W 000°45'0 0.0
2018-Jun-13 06:30N 37°49' W 000°45'4 7.8
2018-Jun-13 06:00N 37°52' W 000°42'4 9.0
2018-Jun-13 05:30N 37°54' W 000°37'5 9.2
2018-Jun-13 05:00N 37°56' W 000°32'8 2.9
2018-Jun-13 02:27N 37°59' W 000°23'2 4.1
2018-Jun-13 02:00N 37°58' W 000°24'1 1.2
2018-Jun-13 01:30N 37°57' W 000°24'3 6.8
2018-Jun-13 01:00N 37°55' W 000°27'5 9.1
2018-Jun-13 00:30N 37°52' W 000°32'5 9.3
2018-Jun-13 00:00N 37°51' W 000°37'5 9.7
2018-Jun-12 23:30N 37°50' W 000°43'2 0.2
2018-Jun-12 13:19N 37°49' W 000°45'0 0.0
2018-Jun-12 13:00N 37°49' W 000°45'0 0.0
2018-Jun-12 12:30N 37°49' W 000°45'0 0.0
2018-Jun-12 12:00N 37°49' W 000°45'0 0.0
2018-Jun-12 11:30N 37°49' W 000°45'0 0.0
2018-Jun-12 11:00N 37°49' W 000°45'0 0.0
2018-Jun-12 10:30N 37°49' W 000°45'0 0.0
2018-Jun-12 10:01N 37°49' W 000°45'0 0.0
2018-Jun-12 09:30N 37°49' W 000°45'0 0.0
2018-Jun-12 09:00N 37°49' W 000°45'0 0.0
2018-Jun-12 08:30N 37°49' W 000°45'0 0.0
2018-Jun-12 08:00N 37°49' W 000°45'0 0.0
2018-Jun-12 07:30N 37°49' W 000°45'0 0.0
2018-Jun-12 07:00N 37°49' W 000°45'0 0.0
2018-Jun-12 06:30N 37°49' W 000°45'0 0.0
2018-Jun-12 06:00N 37°49' W 000°45'2 4.4
2018-Jun-12 05:29N 37°50' W 000°43'5 9.7
2018-Jun-12 05:00N 37°51' W 000°37'4 7.4
2018-Jun-12 04:30N 37°51' W 000°32'0 0.3
2018-Jun-12 04:00N 37°51' W 000°32'0 0.2
2018-Jun-12 03:30N 37°51' W 000°32'0 0.3
2018-Jun-12 03:00N 37°51' W 000°32'0 0.2
2018-Jun-12 02:30N 37°51' W 000°31'0 0.1
2018-Jun-12 02:00N 37°51' W 000°31'3 2.4
2018-Jun-12 00:46N 37°48' W 000°31'0 0.3
2018-Jun-12 00:14N 37°48' W 000°31'0 0.0
2018-Jun-11 23:05N 37°48' W 000°31'0 0.1
2018-Jun-11 22:51N 37°48' W 000°31'3 9.4
2018-Jun-11 22:30N 37°49' W 000°35'5 9.6
2018-Jun-11 21:59N 37°50' W 000°41'  

Dump ship's entire track history